• Join FlightAware (Why Join?)
  • Login
  • US Flag 
02:32AM EST


 

Airport Tracker/Info


-or-


 

Live Flight TrackerFlight Track Log ✈ SKW6492 ✈ 06-Jul-2013 ✈ KDEN - KCOD

Flight Track Log - Related Links

Times and Time Zones

All times are in EDT time to prevent confusion due to time zone crossing. See the SKW6492 flight status page for this flight to view local times or setup timezone preferences in your user account.

Time Position Orientation Groundspeed Altitude Reporting Facility
EDT Latitude Longitude Course Direction KTS MPH feet Rate Location/Type
09:39PM 39.9167 -104.7000 348° North 193 222 7,400  Level Denver TRACON
09:40PM 40.0000 -104.6833 North 298 343 8,700 1,740 Climbing Denver TRACON
09:41PM 40.1650 -104.7711 347° North  Level FlightAware Approximate
09:41PM 40.0833 -104.7000 351° North 301 346 10,900  Level Denver TRACON
09:42PM 40.2708 -104.8029 347° North  Level FlightAware Approximate
09:42PM 40.1667 -104.7167 351° North 295 339 13,200  Level Denver TRACON
09:43PM 40.3763 -104.8365 346° North  Level FlightAware Approximate
09:43PM 40.2500 -104.7333 351° North 324 373 14,700  Level Denver TRACON
09:44PM 40.4815 -104.8716 346° North  Level FlightAware Approximate
09:44PM 40.3500 -104.7500 353° North 341 392 16,000  Level Denver TRACON
09:45PM 40.5873 -104.9035 348° North  Level FlightAware Approximate
09:46PM 40.4792 -104.7831 349° North 359 413 17,700  Level Denver Center
09:47PM 40.5817 -104.8047 351° North 369 425 19,000 1,020 Climbing Denver Center
09:48PM 40.6631 -104.8233 350° North 383 441 19,800 1,140 Climbing Denver Center
09:49PM 40.7969 -104.8536 350° North 370 426 21,400 1,200 Climbing Denver Center
09:50PM 40.8961 -104.9017 340° North 381 438 22,300 780 Climbing Denver Center
09:51PM 40.9981 -104.9525 339° North 391 450 23,100 780 Climbing Denver Center
09:52PM 41.0972 -105.0017 340° North 392 451 23,900 540 Climbing Denver Center
09:53PM 41.2044 -105.0819 331° Northwest 396 456 24,300 420 Climbing Denver Center
09:54PM 41.2875 -105.1758 320° Northwest 407 468 24,800 480 Climbing Denver Center
09:55PM 41.3708 -105.2678 320° Northwest 407 468 25,300 600 Climbing Denver Center
09:56PM 41.4692 -105.3781 320° Northwest 412 474 26,100 480 Climbing Denver Center
09:57PM 41.5536 -105.4717 320° Northwest 412 474 26,300 600 Climbing Denver Center
09:58PM 41.6381 -105.5678 320° Northwest 415 478 27,400 780 Climbing Denver Center
09:59PM 41.7347 -105.6747 320° Northwest 404 465 28,000 540 Climbing Denver Center
10:00PM 41.8156 -105.7675 319° Northwest 402 463 28,600 660 Climbing Denver Center
10:01PM 41.9114 -105.8761 320° Northwest 402 463 29,400 660 Climbing Denver Center
10:02PM 41.9939 -105.9700 320° Northwest 404 465 30,000 240 Climbing Denver Center
10:03PM 42.0769 -106.0642 320° Northwest 406 467 30,000  Level Denver Center
10:04PM 42.1731 -106.1769 319° Northwest 411 473 30,000  Level Denver Center
10:05PM 42.2586 -106.2758 319° Northwest 421 484 30,000  Level Denver Center
10:06PM 42.3464 -106.3781 319° Northwest 431 496 30,000  Level Denver Center
10:07PM 42.4478 -106.4981 319° Northwest 433 498 30,000  Level Denver Center
10:08PM 42.5650 -106.6333 320° Northwest 433 498 30,000  Level Denver Center
10:09PM 42.6533 -106.7367 319° Northwest 436 502 30,000  Level Denver Center
10:11PM 42.7419 -106.8400 319° Northwest 438 504 30,000  Level Denver Center
10:12PM 42.8603 -106.9778 320° Northwest 437 503 30,000  Level Denver Center
10:13PM 42.9481 -107.0828 319° Northwest 439 505 30,000  Level Denver Center
10:14PM 43.0492 -107.2033 319° Northwest 433 498 30,000  Level Denver Center
10:15PM 43.1383 -107.3106 319° Northwest 435 501 30,000  Level Denver Center
10:16PM 43.2286 -107.4203 318° Northwest 435 501 30,000  Level Denver Center
10:17PM 43.3197 -107.5286 319° Northwest 433 498 30,000  Level Denver Center
10:18PM 43.4097 -107.6386 318° Northwest 433 498 30,000  Level Denver Center
10:19PM 43.5006 -107.7497 318° Northwest 436 502 30,000  Level Denver Center
10:20PM 43.5917 -107.8611 318° Northwest 437 503 30,000 -300 Level Denver Center
10:21PM 43.7378 -108.0428 318° Northwest 442 509 29,300 -1,560 Descending Salt Lake Center
10:22PM 43.8314 -108.1592 318° Northwest 449 517 26,200 -3,060 Descending Salt Lake Center
10:23PM 43.9228 -108.2736 318° Northwest 444 511 23,100 -3,000 Descending Salt Lake Center
10:24PM 44.0094 -108.3828 318° Northwest 428 493 20,100 -2,880 Descending Salt Lake Center
10:25PM 44.0936 -108.4881 318° Northwest 417 480 17,200 -2,880 Descending Salt Lake Center
10:26PM 44.1703 -108.5828 318° Northwest 399 459 14,200 -2,940 Descending Salt Lake Center
10:27PM 44.2406 -108.6719 318° Northwest 373 429 11,200 -2,040 Descending Salt Lake Center
10:28PM 44.3078 -108.7581 318° Northwest 352 405 10,100 -1,140 Descending Salt Lake Center
10:30PM 44.3906 -108.8640 320° Northwest  Level FlightAware Approximate